This is the latest recevied weather packets stored in our database for station/object F4MLU-13. If no packets are shown the sender has not sent any weather packets the latest 10 day(s).
| Time | Temp. | Humidity | Pressure | Rain* | Wind** | Luminosity | Snow |
|---|---|---|---|---|---|---|---|
| 1777559441 | 19.44° C | 81% | - | 0 mm | - | - | - |
| 1777550441 | 18.33° C | 80% | - | 0 mm | - | - | - |
| 1777549240 | 19.44° C | 76% | - | 0 mm | - | - | - |
| 1777545641 | 20.56° C | 73% | - | 0 mm | - | - | - |
| 1777540841 | 20.56° C | 76% | - | 0 mm | - | - | - |
| 1777536041 | 20° C | 80% | - | 0 mm | - | - | - |
| 1777535441 | 20° C | 83% | - | 0 mm | - | - | - |
| 1777534841 | 19.44° C | 84% | - | 0 mm | - | - | - |
| 1777530641 | 14.44° C | 99% | - | 0 mm | - | - | - |
| 1777530041 | 14.44° C | 99% | - | 0 mm | - | - | - |
| 1777527042 | 12.78° C | 99% | - | 0 mm | - | - | - |
| 1777524042 | 12.78° C | 99% | - | 0 mm | - | - | - |
| 1777522262 | 12.78° C | 99% | - | 0 mm | - | - | - |
| 1777517442 | 12.22° C | 99% | - | 0 mm | - | - | - |
| 1777515642 | 12.22° C | 99% | - | 0 mm | - | - | - |
| 1777512662 | 12.78° C | 99% | - | 0 mm | - | - | - |
| 1777512042 | 12.78° C | 99% | - | 0 mm | - | - | - |
| 1777500042 | 13.33° C | 99% | - | 0 mm | - | - | - |
| 1777497062 | 13.89° C | 99% | - | 0 mm | - | - | - |
| 1777494043 | 15° C | 99% | - | 0 mm | - | - | - |
| 1777493472 | 15.56° C | 99% | - | 0 mm | - | - | - |
| 1777492864 | 15.56° C | 99% | - | 0 mm | - | - | - |
| 1777486243 | 17.22° C | 97% | - | 0 mm | - | - | - |
| 1777485643 | 17.78° C | 96% | - | 0 mm | - | - | - |
| 1777484443 | 17.78° C | 95% | - | 0 mm | - | - | - |
* Rain latest hour (hover to see other rain measurements)
** Current wind speed in m/s (hover to see current wind gust speed)